TimePST,TemperatureF,Dew PointF,Humidity,Sea Level PressureIn,VisibilityMPH,Wind Direction,Wind SpeedMPH,Gust SpeedMPH,PrecipitationIn,Events,Conditions,WindDirDegrees,DateUTC
12:54 AM,48.9,43.0,80,30.20,10.0,East,3.5,-,N/A,,Clear,90,2012-12-10 08:54:00
1:54 AM,50.0,43.0,77,30.21,10.0,Calm,Calm,-,N/A,,Clear,0,2012-12-10 09:54:00
2:54 AM,48.0,43.0,83,30.22,10.0,Calm,Calm,-,N/A,,Clear,0,2012-12-10 10:54:00
3:54 AM,48.9,43.0,80,30.22,10.0,Calm,Calm,-,N/A,,Clear,0,2012-12-10 11:54:00
4:54 AM,51.1,42.1,71,30.22,10.0,Calm,Calm,-,N/A,,Clear,0,2012-12-10 12:54:00
5:54 AM,50.0,41.0,71,30.22,10.0,Calm,Calm,-,N/A,,Clear,0,2012-12-10 13:54:00
6:54 AM,48.9,41.0,74,30.22,10.0,South,3.5,-,N/A,,Clear,180,2012-12-10 14:54:00
8:54 AM,55.0,45.0,69,30.25,10.0,SE,4.6,-,N/A,,Clear,140,2012-12-10 16:54:00
9:54 AM,61.0,46.0,58,30.26,10.0,Calm,Calm,-,N/A,,Clear,0,2012-12-10 17:54:00
10:54 AM,63.0,44.1,50,30.25,10.0,WSW,4.6,-,N/A,,Clear,240,2012-12-10 18:54:00
11:54 AM,64.9,42.1,43,30.22,10.0,Calm,Calm,-,N/A,,Clear,0,2012-12-10 19:54:00
12:54 PM,69.1,42.1,38,30.19,10.0,Calm,Calm,-,N/A,,Clear,0,2012-12-10 20:54:00
1:54 PM,71.1,41.0,34,30.18,10.0,NE,4.6,-,N/A,,Clear,50,2012-12-10 21:54:00
2:54 PM,64.9,46.9,52,30.17,10.0,West,10.4,-,N/A,,Clear,280,2012-12-10 22:54:00
3:54 PM,64.0,48.9,58,30.15,10.0,West,4.6,-,N/A,,Clear,280,2012-12-10 23:54:00
4:54 PM,61.0,48.9,64,30.15,10.0,Calm,Calm,-,N/A,,Clear,0,2012-12-11 00:54:00
5:54 PM,57.9,48.0,70,30.15,10.0,East,3.5,-,N/A,,Clear,80,2012-12-11 01:54:00
6:54 PM,55.9,44.1,64,30.15,10.0,ENE,3.5,-,N/A,,Clear,70,2012-12-11 02:54:00
7:54 PM,55.0,44.1,67,30.16,10.0,ENE,4.6,-,N/A,,Clear,70,2012-12-11 03:54:00
8:54 PM,54.0,43.0,66,30.16,10.0,Calm,Calm,-,N/A,,Clear,0,2012-12-11 04:54:00
9:54 PM,51.1,43.0,74,30.15,10.0,Calm,Calm,-,N/A,,Clear,0,2012-12-11 05:54:00
10:54 PM,52.0,43.0,71,30.15,10.0,ENE,6.9,-,N/A,,Clear,70,2012-12-11 06:54:00
11:54 PM,50.0,42.1,74,30.14,10.0,Calm,Calm,-,N/A,,Clear,0,2012-12-11 07:54:00